sensor_id;sensor_type;location;lat;lon;timestamp;P1;durP1;ratioP1;P2;durP2;ratioP2
11245;SDS011;59870;50.106;8.580;2023-07-28T00:01:21;4.10;;;3.80;;
11245;SDS011;59870;50.106;8.580;2023-07-28T00:03:48;4.30;;;4.00;;
11245;SDS011;59870;50.106;8.580;2023-07-28T00:06:16;4.60;;;4.20;;
11245;SDS011;59870;50.106;8.580;2023-07-28T00:08:44;3.90;;;3.70;;
11245;SDS011;59870;50.106;8.580;2023-07-28T00:11:11;4.00;;;3.80;;
11245;SDS011;59870;50.106;8.580;2023-07-28T00:13:40;4.13;;;3.83;;
11245;SDS011;59870;50.106;8.580;2023-07-28T00:16:09;4.27;;;4.00;;
11245;SDS011;59870;50.106;8.580;2023-07-28T00:18:41;4.20;;;4.00;;
11245;SDS011;59870;50.106;8.580;2023-07-28T00:21:09;4.23;;;4.03;;
11245;SDS011;59870;50.106;8.580;2023-07-28T00:23:37;4.17;;;3.87;;
11245;SDS011;59870;50.106;8.580;2023-07-28T00:26:05;3.97;;;3.77;;
11245;SDS011;59870;50.106;8.580;2023-07-28T00:28:33;4.10;;;3.80;;
11245;SDS011;59870;50.106;8.580;2023-07-28T00:31:01;3.67;;;3.47;;
11245;SDS011;59870;50.106;8.580;2023-07-28T00:33:29;3.60;;;3.40;;
11245;SDS011;59870;50.106;8.580;2023-07-28T00:35:57;3.80;;;3.60;;
11245;SDS011;59870;50.106;8.580;2023-07-28T00:38:25;3.70;;;3.50;;
11245;SDS011;59870;50.106;8.580;2023-07-28T00:40:56;3.80;;;3.60;;
11245;SDS011;59870;50.106;8.580;2023-07-28T00:43:25;3.77;;;3.57;;
11245;SDS011;59870;50.106;8.580;2023-07-28T00:45:52;6.53;;;3.37;;
11245;SDS011;59870;50.106;8.580;2023-07-28T00:48:20;3.87;;;3.67;;
11245;SDS011;59870;50.106;8.580;2023-07-28T00:50:49;3.87;;;3.67;;
11245;SDS011;59870;50.106;8.580;2023-07-28T00:53:18;3.90;;;3.70;;
11245;SDS011;59870;50.106;8.580;2023-07-28T00:55:46;3.80;;;3.60;;
11245;SDS011;59870;50.106;8.580;2023-07-28T00:58:15;4.30;;;4.10;;
11245;SDS011;59870;50.106;8.580;2023-07-28T01:00:43;3.70;;;3.50;;
11245;SDS011;59870;50.106;8.580;2023-07-28T01:03:11;3.63;;;3.43;;
11245;SDS011;59870;50.106;8.580;2023-07-28T01:05:41;3.67;;;3.47;;
11245;SDS011;59870;50.106;8.580;2023-07-28T01:08:12;4.50;;;4.13;;
11245;SDS011;59870;50.106;8.580;2023-07-28T01:10:49;4.87;;;4.10;;
11245;SDS011;59870;50.106;8.580;2023-07-28T01:13:17;4.33;;;3.93;;
11245;SDS011;59870;50.106;8.580;2023-07-28T01:15:44;4.23;;;3.93;;
11245;SDS011;59870;50.106;8.580;2023-07-28T01:18:12;4.20;;;4.00;;
11245;SDS011;59870;50.106;8.580;2023-07-28T01:20:39;4.00;;;3.70;;
11245;SDS011;59870;50.106;8.580;2023-07-28T01:23:42;3.90;;;3.70;;
11245;SDS011;59870;50.106;8.580;2023-07-28T01:26:59;3.97;;;3.53;;
11245;SDS011;59870;50.106;8.580;2023-07-28T01:29:26;3.90;;;3.70;;
11245;SDS011;59870;50.106;8.580;2023-07-28T01:31:55;3.67;;;3.47;;
11245;SDS011;59870;50.106;8.580;2023-07-28T01:34:26;4.50;;;4.20;;
11245;SDS011;59870;50.106;8.580;2023-07-28T01:36:53;3.60;;;3.40;;
11245;SDS011;59870;50.106;8.580;2023-07-28T01:39:21;4.27;;;3.97;;
11245;SDS011;59870;50.106;8.580;2023-07-28T01:41:49;4.20;;;4.00;;
11245;SDS011;59870;50.106;8.580;2023-07-28T01:44:16;5.43;;;3.93;;
11245;SDS011;59870;50.106;8.580;2023-07-28T01:46:43;4.40;;;4.20;;
11245;SDS011;59870;50.106;8.580;2023-07-28T01:49:11;4.13;;;3.93;;
11245;SDS011;59870;50.106;8.580;2023-07-28T01:51:39;4.40;;;4.20;;
11245;SDS011;59870;50.106;8.580;2023-07-28T01:54:07;4.20;;;4.00;;
11245;SDS011;59870;50.106;8.580;2023-07-28T01:56:34;4.77;;;4.37;;
11245;SDS011;59870;50.106;8.580;2023-07-28T01:59:02;4.40;;;4.10;;
11245;SDS011;59870;50.106;8.580;2023-07-28T02:01:32;4.10;;;3.90;;
11245;SDS011;59870;50.106;8.580;2023-07-28T02:04:00;5.07;;;4.67;;
11245;SDS011;59870;50.106;8.580;2023-07-28T02:06:27;4.33;;;4.13;;
11245;SDS011;59870;50.106;8.580;2023-07-28T02:08:56;4.33;;;4.03;;
11245;SDS011;59870;50.106;8.580;2023-07-28T02:11:23;4.23;;;4.03;;
11245;SDS011;59870;50.106;8.580;2023-07-28T02:13:50;4.73;;;4.37;;
11245;SDS011;59870;50.106;8.580;2023-07-28T02:16:18;4.70;;;4.30;;
11245;SDS011;59870;50.106;8.580;2023-07-28T02:18:45;4.77;;;4.50;;
11245;SDS011;59870;50.106;8.580;2023-07-28T02:21:13;4.73;;;4.40;;
11245;SDS011;59870;50.106;8.580;2023-07-28T02:23:40;4.70;;;4.50;;
11245;SDS011;59870;50.106;8.580;2023-07-28T02:26:08;4.87;;;4.57;;
11245;SDS011;59870;50.106;8.580;2023-07-28T02:28:35;4.93;;;4.63;;
11245;SDS011;59870;50.106;8.580;2023-07-28T02:31:04;5.17;;;4.87;;
11245;SDS011;59870;50.106;8.580;2023-07-28T02:33:32;5.10;;;4.70;;
11245;SDS011;59870;50.106;8.580;2023-07-28T02:36:06;4.47;;;4.27;;
11245;SDS011;59870;50.106;8.580;2023-07-28T02:38:33;4.60;;;4.30;;
11245;SDS011;59870;50.106;8.580;2023-07-28T02:41:01;5.00;;;4.60;;
11245;SDS011;59870;50.106;8.580;2023-07-28T02:43:30;4.57;;;4.37;;
11245;SDS011;59870;50.106;8.580;2023-07-28T02:45:58;5.43;;;4.80;;
11245;SDS011;59870;50.106;8.580;2023-07-28T02:48:27;5.30;;;4.97;;
11245;SDS011;59870;50.106;8.580;2023-07-28T02:50:54;5.03;;;4.73;;
11245;SDS011;59870;50.106;8.580;2023-07-28T02:53:21;4.57;;;4.37;;
11245;SDS011;59870;50.106;8.580;2023-07-28T02:55:49;4.53;;;4.33;;
11245;SDS011;59870;50.106;8.580;2023-07-28T02:58:18;4.60;;;4.40;;
11245;SDS011;59870;50.106;8.580;2023-07-28T03:00:46;4.53;;;4.13;;
11245;SDS011;59870;50.106;8.580;2023-07-28T03:03:19;4.87;;;4.50;;
11245;SDS011;59870;50.106;8.580;2023-07-28T03:05:47;4.87;;;4.53;;
11245;SDS011;59870;50.106;8.580;2023-07-28T03:08:26;4.83;;;4.50;;
11245;SDS011;59870;50.106;8.580;2023-07-28T03:11:06;4.47;;;4.23;;
11245;SDS011;59870;50.106;8.580;2023-07-28T03:13:33;4.50;;;4.10;;
11245;SDS011;59870;50.106;8.580;2023-07-28T03:16:00;4.50;;;4.30;;
11245;SDS011;59870;50.106;8.580;2023-07-28T03:18:28;4.63;;;4.33;;
11245;SDS011;59870;50.106;8.580;2023-07-28T03:20:55;3.97;;;3.67;;
11245;SDS011;59870;50.106;8.580;2023-07-28T03:23:23;5.10;;;4.70;;
11245;SDS011;59870;50.106;8.580;2023-07-28T03:25:51;4.23;;;4.03;;
11245;SDS011;59870;50.106;8.580;2023-07-28T03:28:18;4.70;;;4.37;;
11245;SDS011;59870;50.106;8.580;2023-07-28T03:33:37;4.80;;;4.40;;
11245;SDS011;59870;50.106;8.580;2023-07-28T03:36:04;4.70;;;4.40;;
11245;SDS011;59870;50.106;8.580;2023-07-28T03:38:34;4.57;;;4.37;;
11245;SDS011;59870;50.106;8.580;2023-07-28T03:41:04;4.47;;;3.93;;
11245;SDS011;59870;50.106;8.580;2023-07-28T03:43:31;4.63;;;4.43;;
11245;SDS011;59870;50.106;8.580;2023-07-28T03:45:59;4.13;;;3.90;;
11245;SDS011;59870;50.106;8.580;2023-07-28T03:48:26;4.13;;;3.90;;
11245;SDS011;59870;50.106;8.580;2023-07-28T03:50:54;4.33;;;4.13;;
11245;SDS011;59870;50.106;8.580;2023-07-28T03:53:21;4.93;;;4.37;;
11245;SDS011;59870;50.106;8.580;2023-07-28T03:55:49;4.60;;;4.20;;
11245;SDS011;59870;50.106;8.580;2023-07-28T03:58:16;4.93;;;4.53;;
11245;SDS011;59870;50.106;8.580;2023-07-28T04:00:44;4.70;;;4.50;;
11245;SDS011;59870;50.106;8.580;2023-07-28T04:03:11;4.33;;;4.03;;
11245;SDS011;59870;50.106;8.580;2023-07-28T04:05:38;4.37;;;4.17;;
11245;SDS011;59870;50.106;8.580;2023-07-28T04:08:06;4.47;;;4.07;;
11245;SDS011;59870;50.106;8.580;2023-07-28T04:10:33;4.60;;;4.40;;
11245;SDS011;59870;50.106;8.580;2023-07-28T04:13:01;4.87;;;4.37;;
11245;SDS011;59870;50.106;8.580;2023-07-28T04:15:28;4.20;;;4.00;;
11245;SDS011;59870;50.106;8.580;2023-07-28T04:17:55;3.80;;;3.60;;
11245;SDS011;59870;50.106;8.580;2023-07-28T04:20:23;4.17;;;3.80;;
11245;SDS011;59870;50.106;8.580;2023-07-28T04:22:51;4.27;;;3.87;;
11245;SDS011;59870;50.106;8.580;2023-07-28T04:25:18;3.67;;;3.57;;
11245;SDS011;59870;50.106;8.580;2023-07-28T04:27:47;3.80;;;3.60;;
11245;SDS011;59870;50.106;8.580;2023-07-28T04:30:15;3.53;;;3.33;;
11245;SDS011;59870;50.106;8.580;2023-07-28T04:32:43;4.00;;;3.57;;
11245;SDS011;59870;50.106;8.580;2023-07-28T04:35:15;3.73;;;3.50;;
11245;SDS011;59870;50.106;8.580;2023-07-28T04:38:01;3.80;;;3.50;;
11245;SDS011;59870;50.106;8.580;2023-07-28T04:40:40;3.90;;;3.50;;
11245;SDS011;59870;50.106;8.580;2023-07-28T04:43:10;3.87;;;3.67;;
11245;SDS011;59870;50.106;8.580;2023-07-28T04:45:38;3.97;;;3.57;;
11245;SDS011;59870;50.106;8.580;2023-07-28T04:48:13;4.20;;;3.90;;
11245;SDS011;59870;50.106;8.580;2023-07-28T04:50:40;3.50;;;3.30;;
11245;SDS011;59870;50.106;8.580;2023-07-28T04:53:37;3.97;;;3.73;;
11245;SDS011;59870;50.106;8.580;2023-07-28T04:56:11;4.20;;;3.90;;
11245;SDS011;59870;50.106;8.580;2023-07-28T04:58:38;3.67;;;3.47;;
11245;SDS011;59870;50.106;8.580;2023-07-28T05:01:06;5.93;;;3.73;;
11245;SDS011;59870;50.106;8.580;2023-07-28T05:03:36;3.63;;;3.40;;
11245;SDS011;59870;50.106;8.580;2023-07-28T05:06:23;5.10;;;4.60;;
11245;SDS011;59870;50.106;8.580;2023-07-28T05:08:51;4.50;;;4.10;;
11245;SDS011;59870;50.106;8.580;2023-07-28T05:11:25;4.20;;;3.80;;
11245;SDS011;59870;50.106;8.580;2023-07-28T05:13:53;3.33;;;3.13;;
11245;SDS011;59870;50.106;8.580;2023-07-28T05:16:21;4.37;;;3.83;;
11245;SDS011;59870;50.106;8.580;2023-07-28T05:19:09;3.47;;;3.30;;
11245;SDS011;59870;50.106;8.580;2023-07-28T05:22:08;3.53;;;3.33;;
11245;SDS011;59870;50.106;8.580;2023-07-28T05:24:46;4.07;;;3.77;;
11245;SDS011;59870;50.106;8.580;2023-07-28T05:27:14;3.77;;;3.40;;
11245;SDS011;59870;50.106;8.580;2023-07-28T05:29:44;3.70;;;3.40;;
11245;SDS011;59870;50.106;8.580;2023-07-28T05:32:12;3.77;;;3.47;;
11245;SDS011;59870;50.106;8.580;2023-07-28T05:34:58;3.23;;;3.10;;
11245;SDS011;59870;50.106;8.580;2023-07-28T05:37:25;3.50;;;3.27;;
11245;SDS011;59870;50.106;8.580;2023-07-28T05:39:53;3.33;;;3.13;;
11245;SDS011;59870;50.106;8.580;2023-07-28T05:42:21;3.10;;;2.90;;
11245;SDS011;59870;50.106;8.580;2023-07-28T05:44:48;3.07;;;2.87;;
11245;SDS011;59870;50.106;8.580;2023-07-28T05:47:16;3.70;;;3.50;;
11245;SDS011;59870;50.106;8.580;2023-07-28T05:49:43;3.90;;;3.07;;
11245;SDS011;59870;50.106;8.580;2023-07-28T05:52:11;3.50;;;3.30;;
11245;SDS011;59870;50.106;8.580;2023-07-28T05:54:39;3.50;;;3.30;;
11245;SDS011;59870;50.106;8.580;2023-07-28T05:57:06;3.70;;;3.43;;
11245;SDS011;59870;50.106;8.580;2023-07-28T05:59:34;3.90;;;3.70;;
11245;SDS011;59870;50.106;8.580;2023-07-28T06:02:01;3.60;;;3.00;;
11245;SDS011;59870;50.106;8.580;2023-07-28T06:04:44;3.47;;;3.17;;
11245;SDS011;59870;50.106;8.580;2023-07-28T06:07:11;5.63;;;3.20;;
11245;SDS011;59870;50.106;8.580;2023-07-28T06:09:39;4.63;;;3.30;;
11245;SDS011;59870;50.106;8.580;2023-07-28T06:12:07;3.07;;;2.87;;
11245;SDS011;59870;50.106;8.580;2023-07-28T06:14:35;3.17;;;2.97;;
11245;SDS011;59870;50.106;8.580;2023-07-28T06:17:05;2.80;;;2.70;;
11245;SDS011;59870;50.106;8.580;2023-07-28T06:19:34;4.70;;;3.33;;
11245;SDS011;59870;50.106;8.580;2023-07-28T06:22:01;3.20;;;3.00;;
11245;SDS011;59870;50.106;8.580;2023-07-28T06:28:20;3.10;;;2.90;;
11245;SDS011;59870;50.106;8.580;2023-07-28T06:30:55;2.60;;;2.30;;
11245;SDS011;59870;50.106;8.580;2023-07-28T06:33:24;3.37;;;2.90;;
11245;SDS011;59870;50.106;8.580;2023-07-28T06:35:52;3.17;;;2.87;;
11245;SDS011;59870;50.106;8.580;2023-07-28T06:38:20;2.37;;;2.27;;
11245;SDS011;59870;50.106;8.580;2023-07-28T06:40:47;3.23;;;3.03;;
11245;SDS011;59870;50.106;8.580;2023-07-28T06:43:15;2.30;;;2.20;;
11245;SDS011;59870;50.106;8.580;2023-07-28T06:45:50;2.60;;;2.40;;
11245;SDS011;59870;50.106;8.580;2023-07-28T06:48:18;2.40;;;2.30;;
11245;SDS011;59870;50.106;8.580;2023-07-28T06:50:46;2.50;;;2.40;;
11245;SDS011;59870;50.106;8.580;2023-07-28T06:53:13;2.70;;;2.50;;
11245;SDS011;59870;50.106;8.580;2023-07-28T06:55:43;2.87;;;2.40;;
11245;SDS011;59870;50.106;8.580;2023-07-28T06:58:10;2.30;;;2.20;;
11245;SDS011;59870;50.106;8.580;2023-07-28T07:00:39;2.40;;;2.30;;
11245;SDS011;59870;50.106;8.580;2023-07-28T07:03:07;2.90;;;2.10;;
11245;SDS011;59870;50.106;8.580;2023-07-28T07:05:37;3.63;;;2.00;;
11245;SDS011;59870;50.106;8.580;2023-07-28T07:08:05;2.10;;;2.00;;
11245;SDS011;59870;50.106;8.580;2023-07-28T07:10:32;3.53;;;2.23;;
11245;SDS011;59870;50.106;8.580;2023-07-28T07:13:00;5.43;;;2.30;;
11245;SDS011;59870;50.106;8.580;2023-07-28T07:15:28;2.60;;;2.50;;
11245;SDS011;59870;50.106;8.580;2023-07-28T07:17:55;2.30;;;2.20;;
11245;SDS011;59870;50.106;8.580;2023-07-28T07:20:23;2.40;;;2.30;;
11245;SDS011;59870;50.106;8.580;2023-07-28T07:22:51;2.13;;;2.03;;
11245;SDS011;59870;50.106;8.580;2023-07-28T07:25:20;2.37;;;2.27;;
11245;SDS011;59870;50.106;8.580;2023-07-28T07:27:47;2.30;;;2.20;;
11245;SDS011;59870;50.106;8.580;2023-07-28T07:30:15;2.00;;;1.90;;
11245;SDS011;59870;50.106;8.580;2023-07-28T07:32:42;2.10;;;2.00;;
11245;SDS011;59870;50.106;8.580;2023-07-28T07:35:10;2.57;;;2.37;;
11245;SDS011;59870;50.106;8.580;2023-07-28T07:37:38;2.40;;;2.30;;
11245;SDS011;59870;50.106;8.580;2023-07-28T07:40:07;2.93;;;2.70;;
11245;SDS011;59870;50.106;8.580;2023-07-28T07:42:42;2.90;;;2.00;;
11245;SDS011;59870;50.106;8.580;2023-07-28T07:45:11;2.13;;;2.03;;
11245;SDS011;59870;50.106;8.580;2023-07-28T07:47:43;2.70;;;2.50;;
11245;SDS011;59870;50.106;8.580;2023-07-28T07:50:11;2.60;;;2.37;;
11245;SDS011;59870;50.106;8.580;2023-07-28T07:52:38;3.57;;;1.90;;
11245;SDS011;59870;50.106;8.580;2023-07-28T07:55:09;2.00;;;1.90;;
11245;SDS011;59870;50.106;8.580;2023-07-28T07:57:40;1.90;;;1.80;;
11245;SDS011;59870;50.106;8.580;2023-07-28T08:00:08;2.67;;;1.70;;
11245;SDS011;59870;50.106;8.580;2023-07-28T08:02:41;2.27;;;2.17;;
11245;SDS011;59870;50.106;8.580;2023-07-28T08:05:13;1.93;;;1.80;;
11245;SDS011;59870;50.106;8.580;2023-07-28T08:07:41;1.70;;;1.70;;
11245;SDS011;59870;50.106;8.580;2023-07-28T08:10:09;1.70;;;1.60;;
11245;SDS011;59870;50.106;8.580;2023-07-28T08:12:36;1.70;;;1.60;;
11245;SDS011;59870;50.106;8.580;2023-07-28T08:15:04;2.50;;;1.70;;
11245;SDS011;59870;50.106;8.580;2023-07-28T08:17:41;1.90;;;1.80;;
11245;SDS011;59870;50.106;8.580;2023-07-28T08:20:12;1.67;;;1.60;;
11245;SDS011;59870;50.106;8.580;2023-07-28T08:22:40;1.50;;;1.50;;
11245;SDS011;59870;50.106;8.580;2023-07-28T08:25:23;1.30;;;1.30;;
11245;SDS011;59870;50.106;8.580;2023-07-28T08:27:54;1.37;;;1.37;;
11245;SDS011;59870;50.106;8.580;2023-07-28T08:30:23;2.00;;;1.50;;
11245;SDS011;59870;50.106;8.580;2023-07-28T08:32:51;2.00;;;1.70;;
11245;SDS011;59870;50.106;8.580;2023-07-28T08:35:19;1.30;;;1.30;;
11245;SDS011;59870;50.106;8.580;2023-07-28T08:37:46;1.43;;;1.43;;
11245;SDS011;59870;50.106;8.580;2023-07-28T08:40:14;1.60;;;1.60;;
11245;SDS011;59870;50.106;8.580;2023-07-28T08:42:41;1.90;;;1.80;;
11245;SDS011;59870;50.106;8.580;2023-07-28T08:45:09;1.17;;;1.17;;
11245;SDS011;59870;50.106;8.580;2023-07-28T08:47:36;1.63;;;1.53;;
11245;SDS011;59870;50.106;8.580;2023-07-28T08:50:04;1.50;;;1.40;;
11245;SDS011;59870;50.106;8.580;2023-07-28T08:52:33;1.43;;;1.43;;
11245;SDS011;59870;50.106;8.580;2023-07-28T08:55:00;1.60;;;1.50;;
11245;SDS011;59870;50.106;8.580;2023-07-28T08:57:29;1.43;;;1.43;;
11245;SDS011;59870;50.106;8.580;2023-07-28T08:59:57;1.80;;;1.70;;
11245;SDS011;59870;50.106;8.580;2023-07-28T09:02:25;1.90;;;1.80;;
11245;SDS011;59870;50.106;8.580;2023-07-28T09:04:52;1.80;;;1.70;;
11245;SDS011;59870;50.106;8.580;2023-07-28T09:07:20;2.27;;;2.10;;
11245;SDS011;59870;50.106;8.580;2023-07-28T09:09:49;2.23;;;1.60;;
11245;SDS011;59870;50.106;8.580;2023-07-28T09:12:16;1.50;;;1.50;;
11245;SDS011;59870;50.106;8.580;2023-07-28T09:14:45;2.10;;;1.67;;
11245;SDS011;59870;50.106;8.580;2023-07-28T09:17:13;1.60;;;1.60;;
11245;SDS011;59870;50.106;8.580;2023-07-28T09:19:54;1.80;;;1.70;;
11245;SDS011;59870;50.106;8.580;2023-07-28T09:30:22;1.77;;;1.67;;
11245;SDS011;59870;50.106;8.580;2023-07-28T09:33:36;1.83;;;1.83;;
11245;SDS011;59870;50.106;8.580;2023-07-28T09:36:11;1.70;;;1.60;;
11245;SDS011;59870;50.106;8.580;2023-07-28T09:38:40;2.00;;;1.80;;
11245;SDS011;59870;50.106;8.580;2023-07-28T09:41:09;2.10;;;1.77;;
11245;SDS011;59870;50.106;8.580;2023-07-28T09:43:40;1.80;;;1.80;;
11245;SDS011;59870;50.106;8.580;2023-07-28T09:46:08;1.70;;;1.70;;
11245;SDS011;59870;50.106;8.580;2023-07-28T09:48:38;1.97;;;1.87;;
11245;SDS011;59870;50.106;8.580;2023-07-28T09:51:06;2.30;;;2.20;;
11245;SDS011;59870;50.106;8.580;2023-07-28T09:53:40;1.97;;;1.87;;
11245;SDS011;59870;50.106;8.580;2023-07-28T09:56:15;2.00;;;1.90;;
11245;SDS011;59870;50.106;8.580;2023-07-28T09:58:50;3.57;;;1.87;;
11245;SDS011;59870;50.106;8.580;2023-07-28T10:01:19;2.10;;;2.00;;
11245;SDS011;59870;50.106;8.580;2023-07-28T10:03:49;3.53;;;2.13;;
11245;SDS011;59870;50.106;8.580;2023-07-28T10:06:18;2.60;;;2.40;;
11245;SDS011;59870;50.106;8.580;2023-07-28T10:08:47;1.67;;;1.67;;
11245;SDS011;59870;50.106;8.580;2023-07-28T10:11:15;2.03;;;1.90;;
11245;SDS011;59870;50.106;8.580;2023-07-28T10:13:44;2.07;;;2.07;;
11245;SDS011;59870;50.106;8.580;2023-07-28T10:16:15;2.13;;;2.00;;
11245;SDS011;59870;50.106;8.580;2023-07-28T10:18:53;1.70;;;1.60;;
11245;SDS011;59870;50.106;8.580;2023-07-28T10:21:21;1.97;;;1.87;;
11245;SDS011;59870;50.106;8.580;2023-07-28T10:23:54;1.70;;;1.70;;
11245;SDS011;59870;50.106;8.580;2023-07-28T10:26:35;1.90;;;1.80;;
11245;SDS011;59870;50.106;8.580;2023-07-28T10:29:12;1.70;;;1.70;;
11245;SDS011;59870;50.106;8.580;2023-07-28T10:31:52;1.90;;;1.80;;
11245;SDS011;59870;50.106;8.580;2023-07-28T10:34:21;1.50;;;1.50;;
11245;SDS011;59870;50.106;8.580;2023-07-28T10:36:59;1.83;;;1.80;;
11245;SDS011;59870;50.106;8.580;2023-07-28T10:39:27;2.17;;;2.00;;
11245;SDS011;59870;50.106;8.580;2023-07-28T10:42:02;2.00;;;1.90;;
11245;SDS011;59870;50.106;8.580;2023-07-28T10:44:31;1.77;;;1.70;;
11245;SDS011;59870;50.106;8.580;2023-07-28T10:46:59;1.57;;;1.57;;
11245;SDS011;59870;50.106;8.580;2023-07-28T10:49:28;1.83;;;1.73;;
11245;SDS011;59870;50.106;8.580;2023-07-28T10:51:56;1.90;;;1.80;;
11245;SDS011;59870;50.106;8.580;2023-07-28T10:54:23;1.80;;;1.80;;
11245;SDS011;59870;50.106;8.580;2023-07-28T10:56:51;1.90;;;1.90;;
11245;SDS011;59870;50.106;8.580;2023-07-28T10:59:18;1.87;;;1.80;;
11245;SDS011;59870;50.106;8.580;2023-07-28T11:01:45;2.47;;;1.83;;
11245;SDS011;59870;50.106;8.580;2023-07-28T11:04:17;2.83;;;2.63;;
11245;SDS011;59870;50.106;8.580;2023-07-28T11:06:47;2.30;;;2.20;;
11245;SDS011;59870;50.106;8.580;2023-07-28T11:09:17;2.10;;;2.00;;
11245;SDS011;59870;50.106;8.580;2023-07-28T11:11:49;2.27;;;2.17;;
11245;SDS011;59870;50.106;8.580;2023-07-28T11:14:17;2.20;;;2.10;;
11245;SDS011;59870;50.106;8.580;2023-07-28T11:16:45;2.10;;;2.00;;
11245;SDS011;59870;50.106;8.580;2023-07-28T11:19:15;2.20;;;2.10;;
11245;SDS011;59870;50.106;8.580;2023-07-28T11:21:46;1.80;;;1.70;;
11245;SDS011;59870;50.106;8.580;2023-07-28T11:24:18;3.07;;;2.13;;
11245;SDS011;59870;50.106;8.580;2023-07-28T11:26:47;1.60;;;1.60;;
11245;SDS011;59870;50.106;8.580;2023-07-28T11:29:15;2.43;;;2.23;;
11245;SDS011;59870;50.106;8.580;2023-07-28T11:31:45;2.23;;;2.00;;
11245;SDS011;59870;50.106;8.580;2023-07-28T11:34:13;2.30;;;2.03;;
11245;SDS011;59870;50.106;8.580;2023-07-28T11:36:41;1.83;;;1.80;;
11245;SDS011;59870;50.106;8.580;2023-07-28T11:39:09;2.03;;;1.93;;
11245;SDS011;59870;50.106;8.580;2023-07-28T11:41:37;1.83;;;1.83;;
11245;SDS011;59870;50.106;8.580;2023-07-28T11:44:06;1.90;;;1.80;;
11245;SDS011;59870;50.106;8.580;2023-07-28T11:46:41;2.50;;;2.30;;
11245;SDS011;59870;50.106;8.580;2023-07-28T11:51:41;2.17;;;2.00;;
11245;SDS011;59870;50.106;8.580;2023-07-28T11:54:11;2.47;;;2.17;;
11245;SDS011;59870;50.106;8.580;2023-07-28T11:56:45;2.20;;;2.10;;
11245;SDS011;59870;50.106;8.580;2023-07-28T11:59:14;1.80;;;1.80;;
11245;SDS011;59870;50.106;8.580;2023-07-28T12:01:56;2.20;;;2.10;;
11245;SDS011;59870;50.106;8.580;2023-07-28T12:04:28;3.67;;;3.47;;
11245;SDS011;59870;50.106;8.580;2023-07-28T12:07:16;2.73;;;2.63;;
11245;SDS011;59870;50.106;8.580;2023-07-28T12:12:29;2.40;;;2.30;;
11245;SDS011;59870;50.106;8.580;2023-07-28T12:15:24;3.00;;;2.80;;
11245;SDS011;59870;50.106;8.580;2023-07-28T12:18:02;2.30;;;2.20;;
11245;SDS011;59870;50.106;8.580;2023-07-28T12:20:44;2.80;;;2.70;;
11245;SDS011;59870;50.106;8.580;2023-07-28T12:23:17;2.90;;;2.70;;
11245;SDS011;59870;50.106;8.580;2023-07-28T12:25:51;2.67;;;2.57;;
11245;SDS011;59870;50.106;8.580;2023-07-28T12:28:22;2.80;;;2.70;;
11245;SDS011;59870;50.106;8.580;2023-07-28T12:30:49;3.07;;;2.97;;
11245;SDS011;59870;50.106;8.580;2023-07-28T12:33:19;3.80;;;2.90;;
11245;SDS011;59870;50.106;8.580;2023-07-28T12:35:48;2.90;;;2.70;;
11245;SDS011;59870;50.106;8.580;2023-07-28T12:38:17;2.80;;;2.70;;
11245;SDS011;59870;50.106;8.580;2023-07-28T12:40:48;4.30;;;2.47;;
11245;SDS011;59870;50.106;8.580;2023-07-28T12:43:19;2.80;;;2.70;;
11245;SDS011;59870;50.106;8.580;2023-07-28T12:45:49;2.50;;;2.40;;
11245;SDS011;59870;50.106;8.580;2023-07-28T12:48:19;2.37;;;2.27;;
11245;SDS011;59870;50.106;8.580;2023-07-28T12:50:48;3.07;;;2.93;;
11245;SDS011;59870;50.106;8.580;2023-07-28T12:53:16;2.80;;;2.60;;
11245;SDS011;59870;50.106;8.580;2023-07-28T12:55:49;3.07;;;2.97;;
11245;SDS011;59870;50.106;8.580;2023-07-28T12:58:20;5.27;;;3.90;;
11245;SDS011;59870;50.106;8.580;2023-07-28T13:00:50;3.60;;;3.30;;
11245;SDS011;59870;50.106;8.580;2023-07-28T13:03:21;4.00;;;3.80;;
11245;SDS011;59870;50.106;8.580;2023-07-28T13:05:49;3.30;;;3.07;;
11245;SDS011;59870;50.106;8.580;2023-07-28T13:08:16;3.47;;;3.20;;
11245;SDS011;59870;50.106;8.580;2023-07-28T13:10:44;3.07;;;2.97;;
11245;SDS011;59870;50.106;8.580;2023-07-28T13:13:15;3.33;;;3.13;;
11245;SDS011;59870;50.106;8.580;2023-07-28T13:15:43;3.50;;;3.30;;
11245;SDS011;59870;50.106;8.580;2023-07-28T13:18:10;3.00;;;2.90;;
11245;SDS011;59870;50.106;8.580;2023-07-28T13:20:38;3.30;;;3.20;;
11245;SDS011;59870;50.106;8.580;2023-07-28T13:23:05;3.43;;;3.23;;
11245;SDS011;59870;50.106;8.580;2023-07-28T13:25:33;3.43;;;3.33;;
11245;SDS011;59870;50.106;8.580;2023-07-28T13:28:00;3.10;;;3.00;;
11245;SDS011;59870;50.106;8.580;2023-07-28T13:30:28;3.40;;;3.30;;
11245;SDS011;59870;50.106;8.580;2023-07-28T13:32:56;3.40;;;3.13;;
11245;SDS011;59870;50.106;8.580;2023-07-28T13:35:23;3.83;;;3.63;;
11245;SDS011;59870;50.106;8.580;2023-07-28T13:37:52;3.10;;;3.00;;
11245;SDS011;59870;50.106;8.580;2023-07-28T13:40:19;3.03;;;2.93;;
11245;SDS011;59870;50.106;8.580;2023-07-28T13:42:49;3.33;;;3.23;;
11245;SDS011;59870;50.106;8.580;2023-07-28T13:45:16;3.53;;;3.33;;
11245;SDS011;59870;50.106;8.580;2023-07-28T13:47:44;3.50;;;3.30;;
11245;SDS011;59870;50.106;8.580;2023-07-28T13:50:12;3.80;;;3.60;;
11245;SDS011;59870;50.106;8.580;2023-07-28T13:52:40;3.67;;;3.47;;
11245;SDS011;59870;50.106;8.580;2023-07-28T13:55:07;3.97;;;3.77;;
11245;SDS011;59870;50.106;8.580;2023-07-28T13:57:38;3.70;;;3.50;;
11245;SDS011;59870;50.106;8.580;2023-07-28T14:00:06;4.00;;;3.80;;
11245;SDS011;59870;50.106;8.580;2023-07-28T14:02:37;3.23;;;3.13;;
11245;SDS011;59870;50.106;8.580;2023-07-28T14:05:06;3.93;;;3.63;;
11245;SDS011;59870;50.106;8.580;2023-07-28T14:07:34;3.53;;;3.23;;
11245;SDS011;59870;50.106;8.580;2023-07-28T14:10:01;3.83;;;3.63;;
11245;SDS011;59870;50.106;8.580;2023-07-28T14:12:33;3.73;;;3.43;;
11245;SDS011;59870;50.106;8.580;2023-07-28T14:15:03;3.17;;;3.07;;
11245;SDS011;59870;50.106;8.580;2023-07-28T14:17:31;3.63;;;3.33;;
11245;SDS011;59870;50.106;8.580;2023-07-28T14:19:59;3.43;;;3.23;;
11245;SDS011;59870;50.106;8.580;2023-07-28T14:22:26;3.70;;;3.50;;
11245;SDS011;59870;50.106;8.580;2023-07-28T14:24:54;3.00;;;2.90;;
11245;SDS011;59870;50.106;8.580;2023-07-28T14:27:21;3.93;;;3.50;;
11245;SDS011;59870;50.106;8.580;2023-07-28T14:29:48;2.80;;;2.70;;
11245;SDS011;59870;50.106;8.580;2023-07-28T14:32:16;3.90;;;3.50;;
11245;SDS011;59870;50.106;8.580;2023-07-28T14:34:43;2.80;;;2.70;;
11245;SDS011;59870;50.106;8.580;2023-07-28T14:37:10;3.53;;;3.37;;
11245;SDS011;59870;50.106;8.580;2023-07-28T14:39:38;3.10;;;3.00;;
11245;SDS011;59870;50.106;8.580;2023-07-28T14:42:05;3.00;;;2.80;;
11245;SDS011;59870;50.106;8.580;2023-07-28T14:44:33;2.90;;;2.70;;
11245;SDS011;59870;50.106;8.580;2023-07-28T14:47:01;12.10;;;4.13;;
11245;SDS011;59870;50.106;8.580;2023-07-28T14:49:29;5.53;;;3.30;;
11245;SDS011;59870;50.106;8.580;2023-07-28T14:51:56;7.17;;;3.80;;
11245;SDS011;59870;50.106;8.580;2023-07-28T14:54:24;3.20;;;2.90;;
11245;SDS011;59870;50.106;8.580;2023-07-28T14:56:52;3.10;;;2.90;;
11245;SDS011;59870;50.106;8.580;2023-07-28T14:59:20;3.00;;;2.90;;
11245;SDS011;59870;50.106;8.580;2023-07-28T15:01:47;3.20;;;2.70;;
11245;SDS011;59870;50.106;8.580;2023-07-28T15:04:15;3.00;;;2.80;;
11245;SDS011;59870;50.106;8.580;2023-07-28T15:06:43;3.00;;;2.80;;
11245;SDS011;59870;50.106;8.580;2023-07-28T15:09:11;3.67;;;3.37;;
11245;SDS011;59870;50.106;8.580;2023-07-28T15:11:39;3.73;;;3.53;;
11245;SDS011;59870;50.106;8.580;2023-07-28T15:14:07;3.30;;;3.00;;
11245;SDS011;59870;50.106;8.580;2023-07-28T15:16:35;3.10;;;2.90;;
11245;SDS011;59870;50.106;8.580;2023-07-28T15:19:02;3.63;;;3.43;;
11245;SDS011;59870;50.106;8.580;2023-07-28T15:21:30;3.20;;;2.97;;
11245;SDS011;59870;50.106;8.580;2023-07-28T15:23:58;2.80;;;2.70;;